createdAt,value
2023-01-13T00:00:10.575Z,99712.78
2023-01-13T00:02:37.156Z,99700.63
2023-01-13T00:05:03.927Z,99712.34
2023-01-13T00:07:30.454Z,99718.41
2023-01-13T00:09:56.873Z,99714.72
2023-01-13T00:12:23.325Z,99699.84
2023-01-13T00:14:49.777Z,99716.56
2023-01-13T00:17:16.261Z,99716.38
2023-01-13T00:19:42.803Z,99719.72
2023-01-13T00:22:09.584Z,99719.56
2023-01-13T00:24:36.087Z,99730.63
2023-01-13T00:27:02.541Z,99726.75
2023-01-13T00:29:28.962Z,99724.66
2023-01-13T00:31:55.544Z,99724.00
2023-01-13T00:34:22.492Z,99726.22
2023-01-13T00:36:48.928Z,99731.22
2023-01-13T00:39:15.465Z,99720.41
2023-01-13T00:42:00.254Z,99726.28
2023-01-13T00:44:26.680Z,99731.19
2023-01-13T00:46:53.488Z,99725.69
2023-01-13T00:49:19.972Z,99710.56
2023-01-13T00:51:46.408Z,99705.41
2023-01-13T00:54:12.854Z,99697.56
2023-01-13T00:56:40.996Z,99704.47
2023-01-13T00:59:12.503Z,99725.56
2023-01-13T01:01:39.559Z,99721.06
2023-01-13T01:04:06.498Z,99711.59
2023-01-13T01:06:32.980Z,99718.44
2023-01-13T01:08:59.421Z,99724.50
2023-01-13T01:11:30.719Z,99715.53
2023-01-13T01:13:59.403Z,99732.53
2023-01-13T01:16:28.503Z,99737.19
2023-01-13T01:18:55.749Z,99744.38
2023-01-13T01:21:24.671Z,99735.91
2023-01-13T01:23:51.178Z,99746.22
2023-01-13T01:26:24.850Z,99756.56
2023-01-13T01:28:52.020Z,99749.72
2023-01-13T01:31:24.863Z,99751.06
2023-01-13T01:33:52.949Z,99743.56
2023-01-13T01:36:21.505Z,99747.56
2023-01-13T01:38:49.390Z,99739.56
2023-01-13T01:41:19.619Z,99749.56
2023-01-13T01:44:05.918Z,99727.91
2023-01-13T01:46:39.639Z,99753.59
2023-01-13T01:49:24.484Z,99753.06
2023-01-13T01:51:59.466Z,99739.72
2023-01-13T01:54:31.591Z,99759.38
2023-01-13T01:56:58.539Z,99762.56
2023-01-13T01:59:27.735Z,99755.56
2023-01-13T02:01:54.519Z,99746.88
2023-01-13T02:04:26.638Z,99756.56
2023-01-13T02:06:53.878Z,99751.38
2023-01-13T02:09:20.393Z,99749.56
2023-01-13T02:12:05.294Z,99735.75
2023-01-13T02:14:33.864Z,99749.75
2023-01-13T02:17:15.373Z,99743.22
2023-01-13T02:20:18.889Z,99757.72
2023-01-13T02:23:41.087Z,99758.56
2023-01-13T02:26:10.367Z,99758.72
2023-01-13T02:29:06.999Z,99757.56
2023-01-13T02:31:43.079Z,99752.91
2023-01-13T02:34:44.811Z,99748.06
2023-01-13T02:37:19.533Z,99752.72
2023-01-13T02:39:55.918Z,99759.88
2023-01-13T02:42:50.448Z,99744.41
2023-01-13T02:45:24.252Z,99746.06
2023-01-13T02:47:55.773Z,99743.91
2023-01-13T02:50:28.950Z,99748.25
2023-01-13T02:53:17.807Z,99748.69
2023-01-13T02:55:48.370Z,99748.53
2023-01-13T02:58:18.853Z,99759.19
2023-01-13T03:00:46.531Z,99765.38
2023-01-13T03:03:13.679Z,99758.84
2023-01-13T03:05:44.049Z,99700.38
2023-01-13T03:08:42.988Z,99766.53
2023-01-13T03:11:14.453Z,99771.19
2023-01-13T03:13:41.552Z,99776.84
2023-01-13T03:16:14.057Z,99785.81
2023-01-13T03:18:59.208Z,99780.69
2023-01-13T03:21:34.294Z,99782.69
2023-01-13T03:24:19.562Z,99778.66
2023-01-13T03:27:00.874Z,99778.50
2023-01-13T03:30:00.714Z,99790.16
2023-01-13T03:32:29.591Z,99795.84
2023-01-13T03:35:03.751Z,99794.50
2023-01-13T03:37:37.699Z,99788.16
2023-01-13T03:40:10.897Z,99798.66
2023-01-13T03:42:39.912Z,99799.00
2023-01-13T03:45:17.239Z,99793.34
2023-01-13T03:47:55.713Z,99796.47
2023-01-13T03:50:27.748Z,99795.50
2023-01-13T03:53:05.028Z,99784.78
2023-01-13T03:55:38.255Z,99799.81
2023-01-13T03:58:14.395Z,99779.47
2023-01-13T04:01:02.974Z,99789.66
2023-01-13T04:03:32.932Z,99766.81
2023-01-13T04:06:13.466Z,99772.81
2023-01-13T04:08:51.483Z,99781.97
2023-01-13T04:11:25.220Z,99776.47
2023-01-13T04:13:53.300Z,99784.13
2023-01-13T04:16:19.847Z,99764.94
2023-01-13T04:18:49.876Z,99762.63
2023-01-13T04:21:16.351Z,99768.75
2023-01-13T04:23:42.763Z,99756.13
2023-01-13T04:26:09.344Z,99759.41
2023-01-13T04:28:35.719Z,99756.06
2023-01-13T04:31:02.212Z,99760.25
2023-01-13T04:33:28.666Z,99772.72
2023-01-13T04:35:55.198Z,99775.22
2023-01-13T04:38:22.225Z,99778.56
2023-01-13T04:40:48.994Z,99773.19
2023-01-13T04:43:15.764Z,99765.88
2023-01-13T04:45:43.168Z,99779.19
2023-01-13T04:48:09.800Z,99777.69
2023-01-13T04:50:36.626Z,99772.50
2023-01-13T04:53:03.188Z,99768.03
2023-01-13T04:55:29.905Z,99762.53
2023-01-13T04:58:02.020Z,99767.19
2023-01-13T05:00:28.421Z,99768.34
2023-01-13T05:02:54.885Z,99771.19
2023-01-13T05:05:21.377Z,99767.69
2023-01-13T05:07:47.831Z,99762.19
2023-01-13T05:10:14.344Z,99768.53
2023-01-13T05:12:59.467Z,99761.03
2023-01-13T05:15:44.426Z,99769.69
2023-01-13T05:18:11.292Z,99761.03
2023-01-13T05:20:37.802Z,99750.91
2023-01-13T05:23:22.969Z,99752.03
2023-01-13T05:25:49.634Z,99760.72
2023-01-13T05:28:16.419Z,99754.56
2023-01-13T05:30:46.199Z,99761.84
2023-01-13T05:33:15.050Z,99744.22
2023-01-13T05:35:42.874Z,99759.88
2023-01-13T05:38:13.809Z,99762.06
2023-01-13T05:40:59.705Z,99754.91
2023-01-13T05:43:27.011Z,99754.75
2023-01-13T05:45:53.517Z,99760.56
2023-01-13T05:48:22.720Z,99761.41
2023-01-13T05:50:50.191Z,99763.41
2023-01-13T05:53:18.086Z,99757.56
2023-01-13T05:55:45.288Z,99765.06
2023-01-13T05:58:13.589Z,99740.44
2023-01-13T06:00:41.840Z,99748.75
2023-01-13T06:03:08.910Z,99759.09
2023-01-13T06:05:35.544Z,99757.06
2023-01-13T06:08:04.475Z,99752.09
2023-01-13T06:10:31.404Z,99755.63
2023-01-13T06:12:57.852Z,99754.44
2023-01-13T06:15:24.802Z,99761.81
2023-01-13T06:17:51.681Z,99750.78
2023-01-13T06:20:18.965Z,99756.13
2023-01-13T06:22:50.990Z,99733.13
2023-01-13T06:25:29.637Z,99753.50
2023-01-13T06:27:58.959Z,99754.28
2023-01-13T06:30:29.347Z,99746.81
2023-01-13T06:33:01.306Z,99746.13
2023-01-13T06:35:33.320Z,99739.13
2023-01-13T06:38:03.669Z,99756.94
2023-01-13T06:40:30.374Z,99737.16
2023-01-13T06:43:16.674Z,99734.47
2023-01-13T06:45:50.792Z,99742.47
2023-01-13T06:48:18.829Z,99753.13
2023-01-13T06:50:45.310Z,99745.47
2023-01-13T06:53:11.873Z,99747.13
2023-01-13T06:55:38.287Z,99743.78
2023-01-13T06:58:05.407Z,99747.28
2023-01-13T07:00:32.963Z,99740.75
2023-01-13T07:03:10.608Z,99742.97
2023-01-13T07:05:39.676Z,99731.94
2023-01-13T07:08:06.791Z,99748.97
2023-01-13T07:10:33.856Z,99741.13
2023-01-13T07:13:20.369Z,99750.31
2023-01-13T07:15:57.946Z,99740.97
2023-01-13T07:18:27.381Z,99751.16
2023-01-13T07:21:02.433Z,99739.47
2023-01-13T07:23:31.480Z,99754.44
2023-01-13T07:25:59.344Z,99746.81
2023-01-13T07:28:27.742Z,99741.81
2023-01-13T07:30:54.362Z,99757.97
2023-01-13T07:33:21.355Z,99741.66
2023-01-13T07:35:48.923Z,99731.81
2023-01-13T07:38:15.812Z,99738.63
2023-01-13T07:40:42.235Z,99745.31
2023-01-13T07:43:30.676Z,99746.28
2023-01-13T07:45:58.765Z,99740.13
2023-01-13T07:48:29.493Z,99746.81
2023-01-13T07:50:55.997Z,99748.97
2023-01-13T07:53:24.871Z,99761.66
2023-01-13T07:55:54.808Z,99742.16
2023-01-13T07:58:21.218Z,99754.66
2023-01-13T08:00:47.744Z,99736.00
2023-01-13T08:03:14.362Z,99745.81
2023-01-13T08:05:41.265Z,99741.84
2023-01-13T08:08:07.976Z,99736.19
2023-01-13T08:10:34.576Z,99749.03
2023-01-13T08:13:22.209Z,99747.50
2023-01-13T08:15:50.796Z,99744.91
2023-01-13T08:18:21.290Z,99749.25
2023-01-13T08:20:54.862Z,99742.56
2023-01-13T08:23:23.371Z,99747.91
2023-01-13T08:25:50.130Z,99742.91
2023-01-13T08:28:17.707Z,99752.22
2023-01-13T08:30:44.430Z,99749.91
2023-01-13T08:33:12.727Z,99753.06
2023-01-13T08:35:40.605Z,99756.41
2023-01-13T08:38:08.223Z,99758.91
2023-01-13T08:40:35.019Z,99758.06
2023-01-13T08:43:01.510Z,99747.41
2023-01-13T08:45:28.112Z,99766.72
2023-01-13T08:47:54.524Z,99756.72
2023-01-13T08:50:20.994Z,99766.06
2023-01-13T08:52:47.511Z,99759.53
2023-01-13T08:55:14.107Z,99752.38
2023-01-13T08:57:40.599Z,99767.88
2023-01-13T09:00:08.283Z,99745.56
2023-01-13T09:02:34.944Z,99760.22
2023-01-13T09:05:03.876Z,99726.69
2023-01-13T09:07:31.180Z,99705.34
2023-01-13T09:09:57.799Z,99757.53
2023-01-13T09:12:43.111Z,99735.88
2023-01-13T09:15:10.432Z,99745.22
2023-01-13T09:17:36.826Z,99746.03
2023-01-13T09:20:03.884Z,99745.88
2023-01-13T09:22:30.371Z,99730.66
2023-01-13T09:24:57.008Z,99741.34
2023-01-13T09:27:23.578Z,99727.50
2023-01-13T09:29:50.330Z,99743.84
2023-01-13T09:32:16.857Z,99741.81
2023-01-13T09:35:01.850Z,99744.97
2023-01-13T09:37:40.561Z,99722.44
2023-01-13T09:40:15.279Z,99749.47
2023-01-13T09:43:22.314Z,99744.63
2023-01-13T09:46:00.562Z,99744.97
2023-01-13T09:48:32.391Z,99749.63
2023-01-13T09:51:09.932Z,99749.97
2023-01-13T09:54:08.934Z,99740.13
2023-01-13T09:56:35.325Z,99753.81
2023-01-13T09:59:01.834Z,99752.81
2023-01-13T10:01:36.678Z,99752.81
2023-01-13T10:04:15.007Z,99752.66
2023-01-13T10:06:47.132Z,99743.81
2023-01-13T10:09:49.602Z,99742.97
2023-01-13T10:12:45.337Z,99741.13
2023-01-13T10:15:20.745Z,99753.31
2023-01-13T10:18:03.902Z,99728.31
2023-01-13T10:20:41.573Z,99757.47
2023-01-13T10:23:08.240Z,99736.97
2023-01-13T10:25:58.947Z,99752.78
2023-01-13T10:28:26.446Z,99746.13
2023-01-13T10:30:53.316Z,99742.97
2023-01-13T10:33:28.053Z,99757.47
2023-01-13T10:35:59.568Z,99760.97
2023-01-13T10:38:30.945Z,99768.66
2023-01-13T10:41:00.969Z,99766.34
2023-01-13T10:43:29.321Z,99746.88
2023-01-13T10:46:06.337Z,99768.69
2023-01-13T10:48:38.103Z,99771.41
2023-01-13T10:51:19.584Z,99770.22
2023-01-13T10:53:55.746Z,99755.75
2023-01-13T10:56:25.244Z,99786.06
2023-01-13T10:58:51.681Z,99779.69
2023-01-13T11:01:25.745Z,99775.00
2023-01-13T11:03:56.127Z,99773.16
2023-01-13T11:06:26.719Z,99760.84
2023-01-13T11:08:55.340Z,99760.84
2023-01-13T11:11:27.203Z,99765.84
2023-01-13T11:14:15.439Z,99768.31
2023-01-13T11:16:53.054Z,99771.81
2023-01-13T11:19:22.835Z,99765.50
2023-01-13T11:22:07.381Z,99761.19
2023-01-13T11:25:04.484Z,99742.56
2023-01-13T11:27:41.975Z,99758.09
2023-01-13T11:30:30.283Z,99769.06
2023-01-13T11:33:15.156Z,99757.41
2023-01-13T11:36:05.265Z,99760.22
2023-01-13T11:38:47.781Z,99757.84
2023-01-13T11:41:19.469Z,99751.19
2023-01-13T11:43:52.248Z,99772.69
2023-01-13T11:46:19.731Z,99772.19
2023-01-13T11:48:46.257Z,99772.88
2023-01-13T11:51:16.210Z,99770.53
2023-01-13T11:53:52.874Z,99759.53
2023-01-13T11:56:39.391Z,99769.19
2023-01-13T11:59:36.364Z,99770.03
2023-01-13T12:02:23.553Z,99775.25
2023-01-13T12:05:14.263Z,99759.91
2023-01-13T12:08:03.369Z,99757.56
2023-01-13T12:10:40.756Z,99756.91
2023-01-13T12:13:22.244Z,99769.22
2023-01-13T12:16:15.790Z,99753.91
2023-01-13T12:19:10.336Z,99760.91
2023-01-13T12:21:56.575Z,99780.91
2023-01-13T12:24:29.883Z,99757.91
2023-01-13T12:27:31.813Z,99757.41
2023-01-13T12:30:02.603Z,99753.72
2023-01-13T12:32:36.240Z,99744.03
2023-01-13T12:35:33.696Z,99767.06
2023-01-13T12:38:24.473Z,99769.22
2023-01-13T12:41:12.187Z,99767.56
2023-01-13T12:44:16.563Z,99774.53
2023-01-13T12:46:50.447Z,99774.22
2023-01-13T12:49:23.375Z,99786.19
2023-01-13T12:51:52.742Z,99790.16
2023-01-13T12:54:37.646Z,99792.00
2023-01-13T12:57:16.290Z,99802.81
2023-01-13T13:00:06.330Z,99796.44
2023-01-13T13:02:37.920Z,99799.94
2023-01-13T13:05:22.589Z,99796.75
2023-01-13T13:08:11.947Z,99797.59
2023-01-13T13:10:45.185Z,99777.06
2023-01-13T13:13:41.699Z,99795.56
2023-01-13T13:16:26.468Z,99787.19
2023-01-13T13:19:13.406Z,99788.38
2023-01-13T13:22:18.025Z,99796.06
2023-01-13T13:25:04.325Z,99799.56
2023-01-13T13:28:09.054Z,99799.09
2023-01-13T13:30:46.235Z,99795.41
2023-01-13T13:33:39.510Z,99803.91
2023-01-13T13:36:44.221Z,99791.13
2023-01-13T13:39:40.797Z,99800.47
2023-01-13T13:42:36.765Z,99811.28
2023-01-13T13:45:33.517Z,99818.13
2023-01-13T13:48:00.989Z,99808.97
2023-01-13T13:50:30.299Z,99804.06
2023-01-13T13:53:05.350Z,99816.09
2023-01-13T13:55:32.791Z,99814.41
2023-01-13T13:58:01.592Z,99822.94
2023-01-13T14:00:37.938Z,99811.59
2023-01-13T14:03:20.776Z,99823.56
2023-01-13T14:06:00.924Z,99828.72
2023-01-13T14:08:33.240Z,99826.38
2023-01-13T14:10:59.861Z,99806.69
2023-01-13T14:13:29.378Z,99827.50
2023-01-13T14:16:01.807Z,99839.63
2023-01-13T14:18:30.659Z,99849.97
2023-01-13T14:21:19.533Z,99836.66
2023-01-13T14:24:14.039Z,99833.66
2023-01-13T14:26:41.133Z,99827.50
2023-01-13T14:29:13.369Z,99827.28
2023-01-13T14:31:40.336Z,99825.63
2023-01-13T14:34:32.240Z,99816.09
2023-01-13T14:36:54.915Z,99819.28
2023-01-13T14:39:26.090Z,99810.63
2023-01-13T14:41:53.395Z,99808.66
2023-01-13T14:44:36.372Z,99812.13
2023-01-13T14:47:17.183Z,99822.84
2023-01-13T14:49:56.830Z,99827.34
2023-01-13T14:52:24.885Z,99849.50
2023-01-13T14:54:54.665Z,99857.03
2023-01-13T14:57:33.321Z,99858.03
2023-01-13T15:00:15.055Z,99869.84
2023-01-13T15:02:44.569Z,99890.28
2023-01-13T15:05:17.083Z,99881.09
2023-01-13T15:08:05.592Z,99901.06
2023-01-13T15:10:38.027Z,99902.06
2023-01-13T15:13:06.778Z,99888.69
2023-01-13T15:15:36.040Z,99881.38
2023-01-13T15:18:15.145Z,99898.66
2023-01-13T15:20:42.356Z,99902.97
2023-01-13T15:23:09.403Z,99897.78
2023-01-13T15:25:38.493Z,99899.78
2023-01-13T15:28:07.316Z,99910.72
2023-01-13T15:30:34.263Z,99910.19
2023-01-13T15:33:00.736Z,99921.53
2023-01-13T15:35:28.840Z,99932.03
2023-01-13T15:37:56.913Z,99936.66
2023-01-13T15:40:32.301Z,99938.34
2023-01-13T15:43:17.080Z,99942.97
2023-01-13T15:46:02.475Z,99914.63
2023-01-13T15:48:33.690Z,99944.22
2023-01-13T15:51:02.331Z,99939.38
2023-01-13T15:53:29.654Z,99949.78
2023-01-13T15:55:58.983Z,99950.94
2023-01-13T15:58:28.440Z,99939.59
2023-01-13T16:00:55.607Z,99938.03
2023-01-13T16:03:22.259Z,99923.34
2023-01-13T16:05:49.545Z,99930.13
2023-01-13T16:08:17.841Z,99930.97
2023-01-13T16:10:44.947Z,99932.41
2023-01-13T16:13:12.791Z,99905.25
2023-01-13T16:15:45.543Z,99939.84
2023-01-13T16:18:25.824Z,99947.53
2023-01-13T16:20:53.522Z,99962.34
2023-01-13T16:23:20.523Z,99959.31
2023-01-13T16:25:47.612Z,99953.75
2023-01-13T16:28:20.729Z,99972.59
2023-01-13T16:30:47.912Z,99988.41
2023-01-13T16:33:14.668Z,99978.34
2023-01-13T16:36:08.732Z,99989.53
2023-01-13T16:38:27.705Z,99993.59
2023-01-13T16:40:57.054Z,100008.00
2023-01-13T16:43:23.581Z,100007.72
2023-01-13T16:45:50.095Z,99991.91
2023-01-13T16:48:20.162Z,100010.38
2023-01-13T16:50:46.819Z,100014.41
2023-01-13T16:53:13.279Z,100009.25
2023-01-13T16:55:41.517Z,100010.91
2023-01-13T16:58:18.309Z,100000.28
2023-01-13T17:00:46.906Z,99996.78
2023-01-13T17:03:17.211Z,100009.09
2023-01-13T17:05:44.656Z,100024.72
2023-01-13T17:08:17.570Z,100025.34
2023-01-13T17:10:45.064Z,100024.81
2023-01-13T17:13:16.417Z,100020.63
2023-01-13T17:15:43.639Z,100011.25
2023-01-13T17:18:11.460Z,100009.22
2023-01-13T17:20:37.904Z,100004.88
2023-01-13T17:23:04.365Z,100017.06
2023-01-13T17:25:30.760Z,100017.19
2023-01-13T17:27:58.455Z,99998.63
2023-01-13T17:30:25.017Z,100028.28
2023-01-13T17:32:51.497Z,100028.13
2023-01-13T17:35:22.802Z,100024.78
2023-01-13T17:37:49.197Z,100023.06
2023-01-13T17:40:16.094Z,100039.84
2023-01-13T17:42:42.690Z,100038.19
2023-01-13T17:45:11.424Z,100024.03
2023-01-13T17:47:38.403Z,100037.56
2023-01-13T17:50:05.717Z,100031.94
2023-01-13T17:52:33.692Z,100057.41
2023-01-13T17:55:00.114Z,100069.13
2023-01-13T17:57:26.531Z,100069.13
2023-01-13T17:59:52.956Z,100068.13
2023-01-13T18:02:19.600Z,100089.97
2023-01-13T18:04:46.126Z,100086.31
2023-01-13T18:07:12.564Z,100095.00
2023-01-13T18:09:39.155Z,100106.47
2023-01-13T18:12:05.855Z,100096.56
2023-01-13T18:14:32.380Z,100102.56
2023-01-13T18:16:58.813Z,100114.19
2023-01-13T18:19:43.922Z,100117.63
2023-01-13T18:22:32.327Z,100121.13
2023-01-13T18:25:17.195Z,100127.16
2023-01-13T18:27:43.619Z,100132.34
2023-01-13T18:30:12.383Z,100142.59
2023-01-13T18:32:38.837Z,100142.19
2023-01-13T18:35:10.087Z,100155.50
2023-01-13T18:37:39.943Z,100145.53
2023-01-13T18:40:09.202Z,100157.31
2023-01-13T18:42:51.470Z,100142.75
2023-01-13T18:45:27.548Z,100164.59
2023-01-13T18:47:58.406Z,100164.72
2023-01-13T18:50:25.818Z,100178.16
2023-01-13T18:52:52.665Z,100175.38
2023-01-13T18:55:19.452Z,100165.34
2023-01-13T18:57:46.040Z,100172.47
2023-01-13T19:00:17.257Z,100174.56
2023-01-13T19:02:44.858Z,100180.97
2023-01-13T19:05:11.478Z,100183.25
2023-01-13T19:07:38.328Z,100192.06
2023-01-13T19:10:08.082Z,100193.75
2023-01-13T19:12:34.453Z,100185.50
2023-01-13T19:15:02.228Z,100206.63
2023-01-13T19:17:34.174Z,100206.47
2023-01-13T19:20:01.158Z,100191.22
2023-01-13T19:22:33.436Z,100204.94
2023-01-13T19:25:01.466Z,100219.22
2023-01-13T19:27:28.935Z,100205.09
2023-01-13T19:29:58.579Z,100216.56
2023-01-13T19:32:25.874Z,100225.94
2023-01-13T19:34:54.827Z,100218.78
2023-01-13T19:37:21.368Z,100224.81
2023-01-13T19:39:47.796Z,100234.88
2023-01-13T19:42:32.518Z,100226.31
2023-01-13T19:45:17.959Z,100237.13
2023-01-13T19:47:45.916Z,100221.03
2023-01-13T19:50:13.937Z,100237.66
2023-01-13T19:52:41.640Z,100240.31
2023-01-13T19:55:09.777Z,100236.53
2023-01-13T19:57:36.985Z,100221.97
2023-01-13T20:00:06.473Z,100231.63
2023-01-13T20:02:32.983Z,100241.16
2023-01-13T20:05:01.883Z,100267.75
2023-01-13T20:07:30.508Z,100279.66
2023-01-13T20:09:57.582Z,100277.97
2023-01-13T20:12:25.211Z,100283.16
2023-01-13T20:14:52.453Z,100272.94
2023-01-13T20:17:21.501Z,100290.16
2023-01-13T20:19:48.139Z,100283.28
2023-01-13T20:22:14.870Z,100304.84
2023-01-13T20:24:41.471Z,100313.25
2023-01-13T20:27:07.953Z,100310.59
2023-01-13T20:29:34.638Z,100307.09
2023-01-13T20:32:01.518Z,100320.38
2023-01-13T20:34:28.301Z,100316.88
2023-01-13T20:36:54.811Z,100309.03
2023-01-13T20:39:25.360Z,100319.53
2023-01-13T20:42:10.230Z,100291.28
2023-01-13T20:44:36.724Z,100324.28
2023-01-13T20:47:03.619Z,100334.38
2023-01-13T20:49:30.463Z,100334.66
2023-01-13T20:51:57.523Z,100328.91
2023-01-13T20:54:24.632Z,100326.13
2023-01-13T20:56:51.399Z,100351.03
2023-01-13T20:59:17.843Z,100344.31
2023-01-13T21:01:44.344Z,100371.75
2023-01-13T21:04:10.936Z,100375.97
2023-01-13T21:06:37.614Z,100370.34
2023-01-13T21:09:04.206Z,100369.50
2023-01-13T21:11:48.987Z,100372.00
2023-01-13T21:14:42.944Z,100375.94
2023-01-13T21:17:31.454Z,100374.97
2023-01-13T21:19:57.883Z,100377.47
2023-01-13T21:22:24.636Z,100365.44
2023-01-13T21:24:51.142Z,100385.47
2023-01-13T21:27:17.661Z,100364.47
2023-01-13T21:29:44.585Z,100371.75
2023-01-13T21:32:12.310Z,100386.56
2023-01-13T21:34:38.748Z,100401.84
2023-01-13T21:37:05.228Z,100384.19
2023-01-13T21:39:31.649Z,100405.06
2023-01-13T21:42:16.506Z,100404.22
2023-01-13T21:45:01.687Z,100410.25
2023-01-13T21:47:46.447Z,100424.78
2023-01-13T21:50:14.291Z,100419.06
2023-01-13T21:52:42.665Z,100439.22
2023-01-13T21:55:29.387Z,100449.00
2023-01-13T21:57:58.287Z,100455.59
2023-01-13T22:00:27.541Z,100447.88
2023-01-13T22:02:54.550Z,100458.81
2023-01-13T22:05:27.442Z,100461.34
2023-01-13T22:07:54.019Z,100468.63
2023-01-13T22:10:22.996Z,100460.22
2023-01-13T22:12:53.216Z,100474.78
2023-01-13T22:15:19.619Z,100478.44
2023-01-13T22:17:49.706Z,100486.13
2023-01-13T22:20:16.836Z,100476.78
2023-01-13T22:22:43.242Z,100491.91
2023-01-13T22:25:12.691Z,100504.22
2023-01-13T22:27:40.673Z,100510.22
2023-01-13T22:30:14.183Z,100520.47
2023-01-13T22:32:40.609Z,100515.41
2023-01-13T22:35:08.918Z,100520.72
2023-01-13T22:37:36.472Z,100511.34
2023-01-13T22:40:04.958Z,100521.72
2023-01-13T22:42:31.561Z,100524.25
2023-01-13T22:44:57.956Z,100518.22
2023-01-13T22:47:24.408Z,100522.13
2023-01-13T22:49:50.855Z,100558.25
2023-01-13T22:52:17.685Z,100549.56
2023-01-13T22:54:44.166Z,100545.66
2023-01-13T22:57:10.648Z,100542.28
2023-01-13T22:59:37.167Z,100560.34
2023-01-13T23:02:03.693Z,100556.84
2023-01-13T23:04:30.161Z,100568.19
2023-01-13T23:06:56.639Z,100550.97
2023-01-13T23:09:23.092Z,100574.78
2023-01-13T23:11:49.527Z,100576.44
2023-01-13T23:14:15.963Z,100579.94
2023-01-13T23:16:42.775Z,100603.75
2023-01-13T23:19:10.863Z,100613.56
2023-01-13T23:21:37.995Z,100618.19
2023-01-13T23:24:05.737Z,100615.50
2023-01-13T23:26:33.417Z,100610.19
2023-01-13T23:29:01.715Z,100610.06
2023-01-13T23:31:28.302Z,100607.13
2023-01-13T23:33:54.751Z,100607.25
2023-01-13T23:36:23.835Z,100616.91
2023-01-13T23:38:51.448Z,100616.06
2023-01-13T23:41:21.913Z,100623.22
2023-01-13T23:43:53.589Z,100624.06
2023-01-13T23:46:20.661Z,100627.56
2023-01-13T23:48:47.356Z,100616.06
2023-01-13T23:51:14.468Z,100618.34
2023-01-13T23:53:43.953Z,100621.25
2023-01-13T23:56:13.871Z,100623.50
2023-01-13T23:58:40.926Z,100627.84
